AirNav   Everest Fuels
 
 1155 users online  

CA56 Correctional Training Facility Heliport
Soledad, California, USA

GOING TO SOLEDAD?


FAA INFORMATION EFFECTIVE 02 JANUARY 2020

Location

FAA Identifier: CA56
Lat/Long: 36-28-05.6000N 121-22-48.4000W
36-28.093333N 121-22.806667W
36.4682222,-121.3801111
(estimated)
Elevation: 180 ft. / 55 m (estimated)
Variation: 15E (1985)
From city: 3 miles W of SOLEDAD, CA
Time zone: UTC -8 (UTC -7 during Daylight Saving Time)
Zip code: 93960

Heliport Operations

Heliport use: Private use. Permission required prior to landing
Activation date: 08/1988
Control tower: no
ARTCC: OAKLAND CENTER
FSS: OAKLAND FLIGHT SERVICE STATION
Attendance: CONTINUOUS
Wind indicator: lighted
Segmented circle: no
Lights: SS-SR

Heliport Communications

WX ASOS at SNS (16 nm NW): PHONE 831-422-2830
WX AWOS-AV at 09CA (20 nm SE): 120.800 (831-386-7456)

Nearby radio navigation aids

VOR radial/distance  VOR name  Freq  Var
SNSr121/15.9SALINAS VORTAC117.3017E
BSRr020/21.4BIG SUR VORTAC114.0016E
PXNr227/32.5PANOCHE VORTAC112.6016E
ROMr284/(39.8)PRIEST VOR110.0016E

 
NDB name  Hdg/Dist  Freq  Var  ID
CHUALAR091/4.826316EUAD ..- .- -..
HUNTER LIGGETT328/31.820915EHGT .... --. -

Heliport Services

Runway Information

Helipad H1

Dimensions: 50 x 50 ft. / 15 x 15 m
Surface: concrete
Runway edge lights: PERI
Latitude: 36-28.093333N
Longitude: 121-22.806667W
Elevation: 180.0 ft.
Traffic pattern: leftleft
Obstructions: bldg, 225 ft. from runway

Heliport Ownership and Management from official FAA records

Ownership: Privately-owned
Owner: CALIFORNIA DEPT OF CORRECTION
PO BOX 686
SOLEDAD, CA 93960
Phone 831-678-3951
EXT 2411
Manager: M. ATCHLEY
PO BOX 686
SOLEDAD, CA 93960
Phone 831-678-5969
EXT 2431

Additional Remarks

FOR CD CTC NORCAL APCH AT 916-361-3748.

Instrument Procedures

There are no published instrument procedures at CA56.

Some nearby airports with instrument procedures:

KSNS - Salinas Municipal Airport (16 nm NW)
KOAR - Marina Municipal Airport (22 nm NW)
KMRY - Monterey Regional Airport (23 nm W)
KCVH - Hollister Municipal Airport (26 nm N)
KHGT - Tusi Army Heliport (Hunter Liggett) (29 nm S)
 
Loc | Ops | Rwys | IFR | FBO | Links
Com | Nav | Svcs | Stats | Notes
Area around CA56 (Correctional Training Facility Heliport)
 
Road maps at: MapQuest Bing Google
 
Aerial photo
No photo
 
Sectional chart

 
Airport distance calculator
Flying to Correctional Training Facility Heliport? Find the distance to fly.

From to CA56

Sunrise and sunset
Times for 29-Jan-2020
 Local
(UTC-8)
 Zulu
(UTC)
Morning civil twilight06:4314:43
Sunrise07:1015:10
Sunset17:2701:27
Evening civil twilight17:5401:54

Current date and time
Zulu (UTC)  29-Jan-2020 12:41:53
Local (UTC-8)  29-Jan-2020 04:41:53
 
METAR
KSNS 
16nm NW 
291053Z AUTO 29003KT 10SM OVC022 09/08 A3029 RMK AO2 SLP268 T00940078
KOAR 
22nm NW 
134.025 831-384-2967
No observation available
KMRY 
24nm W 
291154Z 10004KT 10SM CLR 08/06 A3028 RMK AO2 SLP264 T00830061 10117 20078 58009
KCVH 
26nm N 
291220Z AUTO 00000KT 6SM BR OVC012 10/08 A3028 RMK A01
TAF
KSNS 
16nm NW 
291128Z 2912/3012 29004KT P6SM SCT020 BKN250 TEMPO 2912/2916 BKN020 FM291700 29008KT P6SM FEW030 SCT250 FM300300 29005KT P6SM FEW030
NOTAMs
Click for the latest NOTAMs
NOTAMs are issued by the DoD/FAA and will open in a separate window not controlled by AirNav.

 

 
 

Would you like to see your business listed on this page?

 If your business provides an interesting product or service to pilots, flight crews, aircraft, or users of the Correctional Training Facility Heliport, you should consider listing it here.  To start the listing process, click on the button below
 
Add a business
 

Other Pages about Correctional Training Facility Heliport

Update a link
 
Copyright © AirNav, LLC. All rights reserved. Privacy Policy  Contact